createdAt,value
2023-01-18T00:00:47.282Z,19.17
2023-01-18T00:03:14.716Z,19.60
2023-01-18T00:05:42.778Z,19.63
2023-01-18T00:08:16.516Z,20.93
2023-01-18T00:10:44.076Z,22.47
2023-01-18T00:13:11.367Z,20.63
2023-01-18T00:15:39.375Z,19.90
2023-01-18T00:18:06.285Z,18.80
2023-01-18T00:20:33.223Z,18.57
2023-01-18T00:23:01.888Z,18.90
2023-01-18T00:25:29.566Z,17.70
2023-01-18T00:27:57.037Z,16.53
2023-01-18T00:30:26.005Z,17.30
2023-01-18T00:32:56.118Z,17.80
2023-01-18T00:35:24.003Z,18.80
2023-01-18T00:37:51.828Z,17.13
2023-01-18T00:40:20.169Z,18.23
2023-01-18T00:43:05.740Z,19.80
2023-01-18T00:45:32.718Z,19.63
2023-01-18T00:47:59.662Z,21.10
2023-01-18T00:50:26.513Z,22.07
2023-01-18T00:52:57.090Z,21.40
2023-01-18T00:55:24.608Z,22.80
2023-01-18T00:57:51.531Z,22.10
2023-01-18T01:00:19.152Z,21.43
2023-01-18T01:02:46.056Z,21.23
2023-01-18T01:05:42.555Z,22.90
2023-01-18T01:08:17.439Z,21.23
2023-01-18T01:10:50.080Z,20.63
2023-01-18T01:13:40.774Z,18.67
2023-01-18T01:16:27.942Z,20.57
2023-01-18T01:19:14.045Z,21.73
2023-01-18T01:22:00.127Z,20.80
2023-01-18T01:24:45.695Z,20.23
2023-01-18T01:27:13.904Z,21.07
2023-01-18T01:29:40.918Z,20.53
2023-01-18T01:32:08.072Z,21.53
2023-01-18T01:34:36.042Z,22.10
2023-01-18T01:37:03.883Z,21.80
2023-01-18T01:39:31.020Z,20.73
2023-01-18T01:41:58.052Z,21.33
2023-01-18T01:44:24.822Z,21.57
2023-01-18T01:46:57.209Z,22.60
2023-01-18T01:49:33.430Z,21.80
2023-01-18T01:52:10.483Z,20.47
2023-01-18T01:54:50.167Z,21.33
2023-01-18T01:57:23.150Z,20.43
2023-01-18T01:59:59.010Z,21.43
2023-01-18T02:02:26.032Z,20.77
2023-01-18T02:04:55.303Z,21.23
2023-01-18T02:07:24.038Z,21.43
2023-01-18T02:09:53.144Z,21.20
2023-01-18T02:12:20.341Z,20.43
2023-01-18T02:14:47.690Z,20.47
2023-01-18T02:17:56.327Z,21.27
2023-01-18T02:20:50.943Z,23.10
2023-01-18T02:23:43.749Z,23.13
2023-01-18T02:26:39.200Z,22.10
2023-01-18T02:29:18.738Z,21.50
2023-01-18T02:32:04.864Z,21.87
2023-01-18T02:34:43.030Z,21.93
2023-01-18T02:37:22.115Z,21.90
2023-01-18T02:39:58.738Z,21.07
2023-01-18T02:42:47.153Z,21.60
2023-01-18T02:45:37.171Z,22.07
2023-01-18T02:48:05.428Z,22.13
2023-01-18T02:50:32.244Z,22.23
2023-01-18T02:52:59.282Z,21.80
2023-01-18T02:55:26.197Z,23.07
2023-01-18T02:58:02.123Z,21.83
2023-01-18T03:00:29.853Z,23.03
2023-01-18T03:02:58.615Z,28.00
2023-01-18T03:05:27.755Z,30.93
2023-01-18T03:08:13.991Z,34.90
2023-01-18T03:10:51.813Z,28.77
2023-01-18T03:13:35.028Z,27.07
2023-01-18T03:16:09.610Z,26.40
2023-01-18T03:18:39.261Z,24.17
2023-01-18T03:21:08.435Z,25.43
2023-01-18T03:23:40.099Z,47.40
2023-01-18T03:26:12.005Z,32.30
2023-01-18T03:29:03.563Z,27.20
2023-01-18T03:32:03.300Z,24.03
2023-01-18T03:34:42.744Z,25.17
2023-01-18T03:37:15.185Z,25.47
2023-01-18T03:39:53.797Z,25.77
2023-01-18T03:42:39.723Z,26.93
2023-01-18T03:45:15.883Z,25.03
2023-01-18T03:47:42.803Z,25.57
2023-01-18T03:50:10.794Z,27.57
2023-01-18T03:52:42.634Z,30.10
2023-01-18T03:55:22.361Z,43.23
2023-01-18T03:58:05.720Z,33.83
2023-01-18T04:00:32.648Z,30.43
2023-01-18T04:03:00.312Z,26.03
2023-01-18T04:05:27.413Z,25.57
2023-01-18T04:07:54.219Z,24.97
2023-01-18T04:10:21.051Z,24.27
2023-01-18T04:12:47.883Z,25.33
2023-01-18T04:15:14.926Z,24.97
2023-01-18T04:17:41.747Z,24.90
2023-01-18T04:20:09.485Z,25.03
2023-01-18T04:22:36.381Z,25.10
2023-01-18T04:25:03.565Z,25.70
2023-01-18T04:27:30.385Z,24.13
2023-01-18T04:29:58.602Z,25.20
2023-01-18T04:32:25.485Z,27.43
2023-01-18T04:34:53.599Z,31.60
2023-01-18T04:37:20.413Z,31.37
2023-01-18T04:39:47.734Z,34.30
2023-01-18T04:42:14.590Z,31.83
2023-01-18T04:44:41.384Z,33.23
2023-01-18T04:47:08.249Z,31.87
2023-01-18T04:49:35.114Z,28.67
2023-01-18T04:52:01.933Z,27.10
2023-01-18T04:54:28.793Z,26.53
2023-01-18T04:56:55.600Z,25.10
2023-01-18T04:59:22.394Z,24.77
2023-01-18T05:01:49.292Z,25.03
2023-01-18T05:04:16.370Z,24.87
2023-01-18T05:06:44.139Z,24.60
2023-01-18T05:09:13.992Z,24.13
2023-01-18T05:11:41.638Z,24.90
2023-01-18T05:14:09.336Z,24.20
2023-01-18T05:16:36.415Z,24.30
2023-01-18T05:19:03.321Z,24.17
2023-01-18T05:21:30.142Z,24.60
2023-01-18T05:23:56.998Z,24.20
2023-01-18T05:26:24.623Z,23.47
2023-01-18T05:28:57.359Z,25.10
2023-01-18T05:31:24.759Z,25.43
2023-01-18T05:33:51.699Z,25.60
2023-01-18T05:36:18.699Z,23.33
2023-01-18T05:38:46.847Z,24.17
2023-01-18T05:41:13.700Z,24.30
2023-01-18T05:43:40.614Z,23.57
2023-01-18T05:46:07.936Z,23.27
2023-01-18T05:48:34.891Z,23.90
2023-01-18T05:51:08.807Z,23.97
2023-01-18T05:53:35.676Z,23.03
2023-01-18T05:56:05.333Z,24.53
2023-01-18T05:58:32.596Z,23.27
2023-01-18T06:00:59.551Z,23.53
2023-01-18T06:03:26.695Z,24.20
2023-01-18T06:05:53.687Z,23.50
2023-01-18T06:08:21.487Z,24.53
2023-01-18T06:10:55.925Z,24.13
2023-01-18T06:13:24.105Z,24.17
2023-01-18T06:15:52.015Z,23.33
2023-01-18T06:18:18.990Z,22.23
2023-01-18T06:20:46.153Z,23.90
2023-01-18T06:23:13.046Z,23.37
2023-01-18T06:25:39.913Z,22.33
2023-01-18T06:28:06.822Z,22.30
2023-01-18T06:30:34.613Z,22.50
2023-01-18T06:33:06.751Z,22.87
2023-01-18T06:35:34.597Z,23.23
2023-01-18T06:38:02.526Z,23.90
2023-01-18T06:40:29.632Z,23.70
2023-01-18T06:42:57.293Z,23.90
2023-01-18T06:45:25.966Z,24.50
2023-01-18T06:47:52.929Z,24.93
2023-01-18T06:50:19.885Z,26.00
2023-01-18T06:52:46.913Z,25.70
2023-01-18T06:55:15.107Z,24.33
2023-01-18T06:57:42.303Z,24.67
2023-01-18T07:00:10.565Z,24.30
2023-01-18T07:02:37.517Z,24.43
2023-01-18T07:05:04.988Z,23.50
2023-01-18T07:07:32.198Z,23.10
2023-01-18T07:09:59.007Z,24.73
2023-01-18T07:12:25.955Z,24.17
2023-01-18T07:14:52.752Z,22.20
2023-01-18T07:17:19.791Z,23.63
2023-01-18T07:19:46.607Z,23.23
2023-01-18T07:22:13.590Z,23.07
2023-01-18T07:24:40.481Z,22.03
2023-01-18T07:27:07.315Z,23.43
2023-01-18T07:29:34.171Z,22.50
2023-01-18T07:32:01.315Z,23.57
2023-01-18T07:34:28.499Z,21.50
2023-01-18T07:36:55.321Z,23.20
2023-01-18T07:39:22.125Z,22.03
2023-01-18T07:41:49.020Z,21.70
2023-01-18T07:44:15.896Z,21.53
2023-01-18T07:46:43.358Z,19.97
2023-01-18T07:49:10.295Z,20.40
2023-01-18T07:51:38.470Z,19.87
2023-01-18T07:54:05.556Z,21.23
2023-01-18T07:56:32.697Z,19.87
2023-01-18T07:58:59.686Z,20.23
2023-01-18T08:01:26.736Z,19.30
2023-01-18T08:03:54.810Z,34.83
2023-01-18T08:06:27.668Z,22.97
2023-01-18T08:08:56.079Z,21.77
2023-01-18T08:11:23.159Z,57.13
2023-01-18T08:13:50.723Z,90.97
2023-01-18T08:16:18.544Z,76.73
2023-01-18T08:18:45.999Z,114.23
2023-01-18T08:21:13.559Z,113.60
2023-01-18T08:23:41.069Z,206.20
2023-01-18T08:26:09.771Z,51.10
2023-01-18T08:28:36.975Z,49.37
2023-01-18T08:31:15.544Z,332.40
2023-01-18T08:33:46.068Z,201.97
2023-01-18T08:36:18.756Z,59.70
2023-01-18T08:38:57.067Z,56.53
2023-01-18T08:41:28.581Z,63.70
2023-01-18T08:43:56.423Z,36.53
2023-01-18T08:46:23.853Z,31.50
2023-01-18T08:48:59.390Z,57.70
2023-01-18T08:51:26.371Z,152.77
2023-01-18T08:53:56.718Z,41.60
2023-01-18T08:56:23.577Z,24.73
2023-01-18T08:58:52.288Z,22.57
2023-01-18T09:01:19.377Z,22.37
2023-01-18T09:03:48.092Z,34.97
2023-01-18T09:06:16.850Z,41.00
2023-01-18T09:08:43.752Z,62.70
2023-01-18T09:11:10.817Z,124.17
2023-01-18T09:13:58.547Z,138.90
2023-01-18T09:16:26.891Z,88.33
2023-01-18T09:18:55.977Z,117.53
2023-01-18T09:21:23.217Z,65.50
2023-01-18T09:23:51.001Z,31.33
2023-01-18T09:26:20.773Z,22.93
2023-01-18T09:28:52.313Z,20.87
2023-01-18T09:31:21.044Z,19.27
2023-01-18T09:33:53.177Z,18.03
2023-01-18T09:36:23.947Z,17.60
2023-01-18T09:38:51.009Z,17.13
2023-01-18T09:41:33.240Z,18.37
2023-01-18T09:44:09.675Z,16.57
2023-01-18T09:46:39.552Z,18.87
2023-01-18T09:49:14.101Z,18.87
2023-01-18T09:51:59.693Z,19.70
2023-01-18T09:54:34.840Z,19.70
2023-01-18T09:57:19.576Z,19.77
2023-01-18T09:59:55.968Z,20.33
2023-01-18T10:02:29.329Z,20.93
2023-01-18T10:05:00.887Z,24.10
2023-01-18T10:07:30.813Z,25.73
2023-01-18T10:10:00.707Z,26.07
2023-01-18T10:12:39.394Z,26.03
2023-01-18T10:15:22.286Z,25.40
2023-01-18T10:17:53.763Z,25.83
2023-01-18T10:20:33.978Z,26.60
2023-01-18T10:23:32.619Z,24.90
2023-01-18T10:26:07.591Z,24.87
2023-01-18T10:29:01.937Z,25.17
2023-01-18T10:32:00.661Z,25.20
2023-01-18T10:34:33.350Z,22.77
2023-01-18T10:37:14.611Z,23.97
2023-01-18T10:39:46.647Z,23.27
2023-01-18T10:42:23.249Z,23.97
2023-01-18T10:44:50.414Z,22.10
2023-01-18T10:47:18.519Z,24.13
2023-01-18T10:49:48.548Z,24.17
2023-01-18T10:52:25.723Z,23.60
2023-01-18T10:54:58.314Z,23.33
2023-01-18T10:57:48.781Z,23.30
2023-01-18T11:00:21.851Z,24.30
2023-01-18T11:02:51.948Z,25.67
2023-01-18T11:05:33.021Z,23.83
2023-01-18T11:08:25.439Z,23.87
2023-01-18T11:11:01.624Z,23.30
2023-01-18T11:13:32.968Z,24.60
2023-01-18T11:16:15.712Z,24.00
2023-01-18T11:19:00.649Z,24.37
2023-01-18T11:21:41.084Z,23.27
2023-01-18T11:24:29.687Z,25.47
2023-01-18T11:27:02.676Z,26.53
2023-01-18T11:29:35.894Z,26.33
2023-01-18T11:32:06.952Z,27.57
2023-01-18T11:34:43.838Z,26.93
2023-01-18T11:37:35.977Z,28.23
2023-01-18T11:40:28.133Z,26.73
2023-01-18T11:43:10.728Z,26.33
2023-01-18T11:45:59.690Z,26.60
2023-01-18T11:48:32.939Z,26.13
2023-01-18T11:51:31.062Z,28.37
2023-01-18T11:54:26.770Z,26.97
2023-01-18T11:56:56.313Z,27.17
2023-01-18T11:59:29.778Z,28.17
2023-01-18T12:02:34.417Z,28.53
2023-01-18T12:05:13.433Z,28.70
2023-01-18T12:08:05.158Z,28.87
2023-01-18T12:10:46.390Z,26.77
2023-01-18T12:13:22.124Z,25.47
2023-01-18T12:16:01.155Z,26.60
2023-01-18T12:18:33.560Z,25.20
2023-01-18T12:21:10.647Z,25.67
2023-01-18T12:24:19.086Z,25.10
2023-01-18T12:27:16.748Z,25.20
2023-01-18T12:29:52.596Z,25.70
2023-01-18T12:32:40.891Z,26.30
2023-01-18T12:35:24.094Z,26.00
2023-01-18T12:38:13.777Z,24.97
2023-01-18T12:40:46.454Z,26.07
2023-01-18T12:43:41.196Z,25.23
2023-01-18T12:46:12.505Z,23.37
2023-01-18T12:48:53.174Z,23.40
2023-01-18T12:51:23.978Z,25.77
2023-01-18T12:53:54.659Z,25.30
2023-01-18T12:56:39.379Z,25.07
2023-01-18T12:59:11.528Z,27.20
2023-01-18T13:01:47.511Z,26.30
2023-01-18T13:04:36.420Z,25.47
2023-01-18T13:07:11.244Z,25.47
2023-01-18T13:09:43.969Z,22.53
2023-01-18T13:12:11.732Z,24.60
2023-01-18T13:15:07.862Z,25.83
2023-01-18T13:17:52.765Z,26.33
2023-01-18T13:20:29.887Z,28.50
2023-01-18T13:23:27.546Z,28.73
2023-01-18T13:25:54.720Z,30.80
2023-01-18T13:28:24.942Z,30.70
2023-01-18T13:31:00.752Z,31.00
2023-01-18T13:33:31.417Z,31.67
2023-01-18T13:36:02.301Z,31.37
2023-01-18T13:38:40.997Z,30.80
2023-01-18T13:41:13.389Z,30.27
2023-01-18T13:43:41.452Z,30.10
2023-01-18T13:46:08.332Z,30.20
2023-01-18T13:48:59.136Z,30.20
2023-01-18T13:51:41.247Z,31.53
2023-01-18T13:54:10.562Z,30.00
2023-01-18T13:56:39.394Z,30.13
2023-01-18T13:59:13.192Z,30.47
2023-01-18T14:01:44.138Z,30.27
2023-01-18T14:04:33.271Z,29.27
2023-01-18T14:07:04.093Z,29.57
2023-01-18T14:09:43.396Z,29.37
2023-01-18T14:12:11.876Z,29.80
2023-01-18T14:14:56.929Z,32.63
2023-01-18T14:17:25.604Z,33.37
2023-01-18T14:20:29.379Z,33.87
2023-01-18T14:23:25.160Z,32.83
2023-01-18T14:26:01.113Z,33.50
2023-01-18T14:28:54.815Z,33.20
2023-01-18T14:31:29.206Z,32.90
2023-01-18T14:33:56.394Z,33.20
2023-01-18T14:36:28.619Z,32.03
2023-01-18T14:39:14.334Z,32.60
2023-01-18T14:41:44.531Z,33.10
2023-01-18T14:44:21.792Z,31.10
2023-01-18T14:46:54.441Z,30.77
2023-01-18T14:49:31.119Z,30.87
2023-01-18T14:51:59.225Z,30.10
2023-01-18T14:54:26.253Z,31.07
2023-01-18T14:57:05.788Z,30.17
2023-01-18T14:59:33.904Z,30.30
2023-01-18T15:02:13.677Z,30.23
2023-01-18T15:04:45.536Z,29.70
2023-01-18T15:07:30.785Z,32.33
2023-01-18T15:09:58.726Z,34.57
2023-01-18T15:12:31.621Z,32.97
2023-01-18T15:15:25.983Z,31.93
2023-01-18T15:17:56.588Z,32.97
2023-01-18T15:20:24.210Z,31.67
2023-01-18T15:22:53.803Z,33.03
2023-01-18T15:25:26.655Z,30.93
2023-01-18T15:27:54.004Z,31.20
2023-01-18T15:30:23.804Z,32.30
2023-01-18T15:32:54.917Z,31.80
2023-01-18T15:35:25.650Z,32.63
2023-01-18T15:37:53.276Z,34.83
2023-01-18T15:40:20.313Z,32.57
2023-01-18T15:42:48.577Z,32.97
2023-01-18T15:45:20.734Z,32.63
2023-01-18T15:47:51.092Z,32.27
2023-01-18T15:50:23.678Z,33.50
2023-01-18T15:53:02.277Z,48.70
2023-01-18T15:55:38.699Z,78.00
2023-01-18T15:58:19.686Z,58.83
2023-01-18T16:00:55.953Z,57.00
2023-01-18T16:03:30.677Z,46.17
2023-01-18T16:06:08.000Z,53.40
2023-01-18T16:08:35.489Z,61.87
2023-01-18T16:11:02.404Z,48.30
2023-01-18T16:13:35.285Z,42.73
2023-01-18T16:16:09.451Z,45.20
2023-01-18T16:18:36.401Z,43.10
2023-01-18T16:21:12.501Z,40.93
2023-01-18T16:23:44.140Z,40.83
2023-01-18T16:26:11.296Z,41.63
2023-01-18T16:28:38.182Z,40.57
2023-01-18T16:31:05.136Z,39.27
2023-01-18T16:33:32.102Z,40.07
2023-01-18T16:35:59.032Z,40.17
2023-01-18T16:38:25.974Z,37.63
2023-01-18T16:40:53.298Z,37.23
2023-01-18T16:43:27.122Z,40.80
2023-01-18T16:45:56.460Z,52.53
2023-01-18T16:48:26.174Z,52.37
2023-01-18T16:50:55.838Z,49.70
2023-01-18T16:53:23.044Z,45.27
2023-01-18T16:55:49.911Z,43.63
2023-01-18T16:58:19.012Z,42.10
2023-01-18T17:01:06.330Z,47.30
2023-01-18T17:03:36.048Z,54.53
2023-01-18T17:06:03.567Z,48.97
2023-01-18T17:08:30.378Z,49.53
2023-01-18T17:10:57.210Z,48.70
2023-01-18T17:13:24.352Z,48.13
2023-01-18T17:15:53.240Z,43.40
2023-01-18T17:18:27.878Z,50.90
2023-01-18T17:20:55.698Z,55.77
2023-01-18T17:23:22.633Z,45.87
2023-01-18T17:25:49.548Z,46.20
2023-01-18T17:28:18.363Z,51.37
2023-01-18T17:30:48.920Z,50.07
2023-01-18T17:33:18.512Z,47.23
2023-01-18T17:35:45.664Z,46.20
2023-01-18T17:38:23.302Z,46.43
2023-01-18T17:40:51.471Z,51.63
2023-01-18T17:43:28.385Z,58.33
2023-01-18T17:46:02.387Z,59.87
2023-01-18T17:48:29.403Z,67.03
2023-01-18T17:50:56.269Z,103.53
2023-01-18T17:53:23.194Z,99.43
2023-01-18T17:55:50.114Z,64.20
2023-01-18T17:58:16.977Z,57.27
2023-01-18T18:00:44.750Z,52.67
2023-01-18T18:03:11.677Z,51.73
2023-01-18T18:05:38.893Z,50.13
2023-01-18T18:08:06.109Z,59.70
2023-01-18T18:10:33.079Z,74.80
2023-01-18T18:13:00.200Z,72.17
2023-01-18T18:15:27.446Z,57.47
2023-01-18T18:17:54.415Z,69.90
2023-01-18T18:20:22.754Z,61.67
2023-01-18T18:22:50.004Z,56.47
2023-01-18T18:25:16.933Z,58.40
2023-01-18T18:27:46.764Z,51.27
2023-01-18T18:30:15.051Z,48.13
2023-01-18T18:32:41.918Z,45.60
2023-01-18T18:35:23.789Z,45.27
2023-01-18T18:37:53.796Z,49.27
2023-01-18T18:40:20.679Z,53.43
2023-01-18T18:43:00.758Z,59.27
2023-01-18T18:45:28.596Z,76.37
2023-01-18T18:47:55.454Z,69.73
2023-01-18T18:50:22.476Z,75.00
2023-01-18T18:52:49.445Z,63.63
2023-01-18T18:55:16.346Z,60.07
2023-01-18T18:57:43.176Z,53.63
2023-01-18T19:00:10.696Z,50.67
2023-01-18T19:02:37.658Z,51.87
2023-01-18T19:05:07.471Z,55.40
2023-01-18T19:07:35.108Z,58.50
2023-01-18T19:10:02.279Z,49.43
2023-01-18T19:12:29.729Z,43.40
2023-01-18T19:14:56.895Z,40.10
2023-01-18T19:17:30.272Z,38.77
2023-01-18T19:19:58.301Z,37.97
2023-01-18T19:22:25.784Z,39.00
2023-01-18T19:24:52.586Z,38.43
2023-01-18T19:27:21.242Z,35.73
2023-01-18T19:29:48.140Z,34.97
2023-01-18T19:32:15.483Z,35.43
2023-01-18T19:34:42.442Z,31.50
2023-01-18T19:37:09.372Z,31.87
2023-01-18T19:39:36.484Z,33.60
2023-01-18T19:42:03.476Z,35.87
2023-01-18T19:44:30.342Z,35.40
2023-01-18T19:46:57.411Z,38.63
2023-01-18T19:49:26.515Z,66.13
2023-01-18T19:51:54.611Z,52.37
2023-01-18T19:54:21.861Z,45.70
2023-01-18T19:56:48.771Z,52.23
2023-01-18T19:59:15.965Z,44.80
2023-01-18T20:01:43.100Z,45.13
2023-01-18T20:04:10.418Z,42.97
2023-01-18T20:06:43.281Z,41.47
2023-01-18T20:09:19.476Z,38.63
2023-01-18T20:11:48.722Z,37.93
2023-01-18T20:14:15.716Z,36.80
2023-01-18T20:16:45.755Z,36.33
2023-01-18T20:19:14.239Z,34.37
2023-01-18T20:21:41.236Z,33.20
2023-01-18T20:24:08.863Z,34.57
2023-01-18T20:26:38.137Z,30.83
2023-01-18T20:29:07.498Z,32.03
2023-01-18T20:31:39.283Z,27.67
2023-01-18T20:34:06.944Z,26.20
2023-01-18T20:36:37.501Z,26.13
2023-01-18T20:39:05.336Z,22.97
2023-01-18T20:41:32.619Z,21.63
2023-01-18T20:43:59.839Z,21.40
2023-01-18T20:46:26.724Z,20.30
2023-01-18T20:48:53.713Z,21.47
2023-01-18T20:51:20.806Z,28.43
2023-01-18T20:53:47.654Z,28.93
2023-01-18T20:56:28.331Z,35.83
2023-01-18T20:58:55.667Z,37.73
2023-01-18T21:01:22.890Z,35.10
2023-01-18T21:03:54.783Z,29.60
2023-01-18T21:06:21.853Z,27.37
2023-01-18T21:08:52.686Z,24.97
2023-01-18T21:11:25.265Z,26.93
2023-01-18T21:13:53.903Z,27.13
2023-01-18T21:16:22.088Z,25.00
2023-01-18T21:18:49.838Z,27.60
2023-01-18T21:21:16.689Z,25.13
2023-01-18T21:23:43.576Z,26.73
2023-01-18T21:26:12.403Z,28.53
2023-01-18T21:28:39.798Z,37.23
2023-01-18T21:31:07.762Z,36.27
2023-01-18T21:33:35.174Z,35.10
2023-01-18T21:36:12.066Z,39.83
2023-01-18T21:38:38.972Z,38.93
2023-01-18T21:41:24.865Z,38.13
2023-01-18T21:44:12.478Z,35.97
2023-01-18T21:46:49.690Z,35.50
2023-01-18T21:49:52.492Z,38.53
2023-01-18T21:52:53.946Z,36.70
2023-01-18T21:55:21.602Z,40.00
2023-01-18T21:58:08.638Z,38.00
2023-01-18T22:00:40.096Z,36.30
2023-01-18T22:03:07.334Z,39.07
2023-01-18T22:05:34.262Z,42.17
2023-01-18T22:08:01.464Z,46.93
2023-01-18T22:10:28.503Z,54.70
2023-01-18T22:12:55.600Z,54.37
2023-01-18T22:15:23.165Z,57.63
2023-01-18T22:17:50.095Z,337.13
2023-01-18T22:20:18.053Z,183.77
2023-01-18T22:22:44.991Z,90.70
2023-01-18T22:25:12.185Z,162.17
2023-01-18T22:27:39.002Z,119.70
2023-01-18T22:30:06.320Z,97.23
2023-01-18T22:32:34.185Z,86.27
2023-01-18T22:35:01.115Z,102.73
2023-01-18T22:37:27.975Z,83.93
2023-01-18T22:39:54.816Z,74.13
2023-01-18T22:42:21.678Z,78.13
2023-01-18T22:44:48.652Z,65.67
2023-01-18T22:47:15.516Z,59.10
2023-01-18T22:49:42.385Z,63.80
2023-01-18T22:52:09.213Z,59.57
2023-01-18T22:54:36.042Z,61.47
2023-01-18T22:57:02.846Z,65.97
2023-01-18T22:59:29.660Z,56.13
2023-01-18T23:01:57.215Z,61.13
2023-01-18T23:04:24.448Z,60.10
2023-01-18T23:06:54.711Z,58.03
2023-01-18T23:09:21.767Z,47.13
2023-01-18T23:11:49.043Z,47.30
2023-01-18T23:14:34.619Z,40.63
2023-01-18T23:17:20.241Z,42.57
2023-01-18T23:19:47.592Z,40.27
2023-01-18T23:22:14.492Z,41.53
2023-01-18T23:24:41.403Z,41.07
2023-01-18T23:27:11.002Z,45.13
2023-01-18T23:29:39.308Z,44.30
2023-01-18T23:32:06.879Z,51.70
2023-01-18T23:34:34.003Z,50.20
2023-01-18T23:37:00.883Z,53.93
2023-01-18T23:39:46.413Z,60.27
2023-01-18T23:42:31.851Z,66.43
2023-01-18T23:45:17.448Z,53.23
2023-01-18T23:48:03.411Z,48.33
2023-01-18T23:50:49.310Z,48.17
2023-01-18T23:53:34.883Z,49.83
2023-01-18T23:56:01.686Z,45.93
2023-01-18T23:58:28.564Z,51.33
